sensor_id;sensor_type;location;lat;lon;timestamp;P1;durP1;ratioP1;P2;durP2;ratioP2
3647;SDS011;1840;48.892;15.312;2023-07-13T00:00:03;9.80;;;5.10;;
3647;SDS011;1840;48.892;15.312;2023-07-13T00:02:35;9.20;;;4.90;;
3647;SDS011;1840;48.892;15.312;2023-07-13T00:05:04;6.73;;;4.93;;
3647;SDS011;1840;48.892;15.312;2023-07-13T00:07:33;12.80;;;5.00;;
3647;SDS011;1840;48.892;15.312;2023-07-13T00:10:01;7.13;;;4.63;;
3647;SDS011;1840;48.892;15.312;2023-07-13T00:12:30;8.30;;;5.90;;
3647;SDS011;1840;48.892;15.312;2023-07-13T00:15:03;8.53;;;4.83;;
3647;SDS011;1840;48.892;15.312;2023-07-13T00:17:33;11.73;;;5.80;;
3647;SDS011;1840;48.892;15.312;2023-07-13T00:20:01;8.10;;;4.97;;
3647;SDS011;1840;48.892;15.312;2023-07-13T00:22:31;8.17;;;5.17;;
3647;SDS011;1840;48.892;15.312;2023-07-13T00:24:59;13.57;;;5.30;;
3647;SDS011;1840;48.892;15.312;2023-07-13T00:27:27;10.70;;;5.23;;
3647;SDS011;1840;48.892;15.312;2023-07-13T00:29:58;6.73;;;4.77;;
3647;SDS011;1840;48.892;15.312;2023-07-13T00:32:27;9.63;;;5.50;;
3647;SDS011;1840;48.892;15.312;2023-07-13T00:34:57;7.80;;;4.63;;
3647;SDS011;1840;48.892;15.312;2023-07-13T00:37:26;10.70;;;4.87;;
3647;SDS011;1840;48.892;15.312;2023-07-13T00:39:54;7.47;;;4.17;;
3647;SDS011;1840;48.892;15.312;2023-07-13T00:42:22;8.93;;;4.70;;
3647;SDS011;1840;48.892;15.312;2023-07-13T00:45:03;8.50;;;5.20;;
3647;SDS011;1840;48.892;15.312;2023-07-13T00:47:35;9.00;;;4.73;;
3647;SDS011;1840;48.892;15.312;2023-07-13T00:50:04;10.17;;;4.70;;
3647;SDS011;1840;48.892;15.312;2023-07-13T00:52:36;10.40;;;4.70;;
3647;SDS011;1840;48.892;15.312;2023-07-13T00:55:15;8.20;;;4.90;;
3647;SDS011;1840;48.892;15.312;2023-07-13T00:57:44;7.10;;;4.37;;
3647;SDS011;1840;48.892;15.312;2023-07-13T01:00:13;9.80;;;4.77;;
3647;SDS011;1840;48.892;15.312;2023-07-13T01:02:44;10.10;;;4.60;;
3647;SDS011;1840;48.892;15.312;2023-07-13T01:05:14;7.63;;;3.40;;
3647;SDS011;1840;48.892;15.312;2023-07-13T01:07:44;6.67;;;3.93;;
3647;SDS011;1840;48.892;15.312;2023-07-13T01:10:12;7.17;;;3.53;;
3647;SDS011;1840;48.892;15.312;2023-07-13T01:12:41;10.87;;;4.33;;
3647;SDS011;1840;48.892;15.312;2023-07-13T01:18:03;9.57;;;4.03;;
3647;SDS011;1840;48.892;15.312;2023-07-13T01:20:32;6.93;;;4.67;;
3647;SDS011;1840;48.892;15.312;2023-07-13T01:23:05;11.87;;;4.10;;
3647;SDS011;1840;48.892;15.312;2023-07-13T01:25:34;8.13;;;4.00;;
3647;SDS011;1840;48.892;15.312;2023-07-13T01:28:03;11.63;;;4.30;;
3647;SDS011;1840;48.892;15.312;2023-07-13T01:30:32;8.33;;;3.83;;
3647;SDS011;1840;48.892;15.312;2023-07-13T01:33:00;9.30;;;4.90;;
3647;SDS011;1840;48.892;15.312;2023-07-13T01:35:30;9.60;;;3.63;;
3647;SDS011;1840;48.892;15.312;2023-07-13T01:37:58;8.70;;;4.70;;
3647;SDS011;1840;48.892;15.312;2023-07-13T01:40:29;10.27;;;4.37;;
3647;SDS011;1840;48.892;15.312;2023-07-13T01:42:57;11.63;;;5.07;;
3647;SDS011;1840;48.892;15.312;2023-07-13T01:45:26;14.00;;;4.97;;
3647;SDS011;1840;48.892;15.312;2023-07-13T01:47:54;9.20;;;4.53;;
3647;SDS011;1840;48.892;15.312;2023-07-13T01:50:22;7.77;;;5.00;;
3647;SDS011;1840;48.892;15.312;2023-07-13T01:52:50;10.17;;;4.90;;
3647;SDS011;1840;48.892;15.312;2023-07-13T01:55:19;9.20;;;4.10;;
3647;SDS011;1840;48.892;15.312;2023-07-13T01:57:48;10.90;;;4.80;;
3647;SDS011;1840;48.892;15.312;2023-07-13T02:00:17;8.33;;;4.60;;
3647;SDS011;1840;48.892;15.312;2023-07-13T02:02:46;9.90;;;4.63;;
3647;SDS011;1840;48.892;15.312;2023-07-13T02:05:14;7.80;;;4.20;;
3647;SDS011;1840;48.892;15.312;2023-07-13T02:07:42;8.40;;;3.67;;
3647;SDS011;1840;48.892;15.312;2023-07-13T02:10:11;20.43;;;5.43;;
3647;SDS011;1840;48.892;15.312;2023-07-13T02:12:40;7.00;;;4.10;;
3647;SDS011;1840;48.892;15.312;2023-07-13T02:15:10;10.80;;;4.13;;
3647;SDS011;1840;48.892;15.312;2023-07-13T02:17:38;7.97;;;4.57;;
3647;SDS011;1840;48.892;15.312;2023-07-13T02:20:07;7.57;;;4.40;;
3647;SDS011;1840;48.892;15.312;2023-07-13T02:22:36;10.27;;;4.90;;
3647;SDS011;1840;48.892;15.312;2023-07-13T02:25:04;10.43;;;4.90;;
3647;SDS011;1840;48.892;15.312;2023-07-13T02:27:32;11.17;;;4.27;;
3647;SDS011;1840;48.892;15.312;2023-07-13T02:30:01;6.60;;;4.00;;
3647;SDS011;1840;48.892;15.312;2023-07-13T02:32:30;7.60;;;3.90;;
3647;SDS011;1840;48.892;15.312;2023-07-13T02:34:58;8.30;;;4.40;;
3647;SDS011;1840;48.892;15.312;2023-07-13T02:37:27;10.43;;;4.37;;
3647;SDS011;1840;48.892;15.312;2023-07-13T02:39:56;7.73;;;3.80;;
3647;SDS011;1840;48.892;15.312;2023-07-13T02:42:24;7.90;;;3.60;;
3647;SDS011;1840;48.892;15.312;2023-07-13T02:44:52;13.00;;;4.50;;
3647;SDS011;1840;48.892;15.312;2023-07-13T02:47:20;8.20;;;4.37;;
3647;SDS011;1840;48.892;15.312;2023-07-13T02:49:49;9.17;;;3.73;;
3647;SDS011;1840;48.892;15.312;2023-07-13T02:52:18;9.97;;;3.90;;
3647;SDS011;1840;48.892;15.312;2023-07-13T02:54:46;7.17;;;3.90;;
3647;SDS011;1840;48.892;15.312;2023-07-13T02:57:14;5.30;;;3.27;;
3647;SDS011;1840;48.892;15.312;2023-07-13T02:59:42;9.83;;;4.23;;
3647;SDS011;1840;48.892;15.312;2023-07-13T03:02:10;7.40;;;3.73;;
3647;SDS011;1840;48.892;15.312;2023-07-13T03:04:38;8.40;;;3.80;;
3647;SDS011;1840;48.892;15.312;2023-07-13T03:07:08;7.00;;;3.47;;
3647;SDS011;1840;48.892;15.312;2023-07-13T03:09:36;9.73;;;3.80;;
3647;SDS011;1840;48.892;15.312;2023-07-13T03:12:05;6.70;;;4.07;;
3647;SDS011;1840;48.892;15.312;2023-07-13T03:14:33;6.83;;;3.90;;
3647;SDS011;1840;48.892;15.312;2023-07-13T03:17:02;7.07;;;3.77;;
3647;SDS011;1840;48.892;15.312;2023-07-13T03:19:30;5.20;;;3.80;;
3647;SDS011;1840;48.892;15.312;2023-07-13T03:21:58;8.73;;;3.43;;
3647;SDS011;1840;48.892;15.312;2023-07-13T03:24:27;5.33;;;3.43;;
3647;SDS011;1840;48.892;15.312;2023-07-13T03:26:56;5.87;;;4.10;;
3647;SDS011;1840;48.892;15.312;2023-07-13T03:29:24;10.37;;;4.10;;
3647;SDS011;1840;48.892;15.312;2023-07-13T03:31:52;8.23;;;4.17;;
3647;SDS011;1840;48.892;15.312;2023-07-13T03:34:20;9.43;;;4.00;;
3647;SDS011;1840;48.892;15.312;2023-07-13T03:36:48;9.40;;;4.03;;
3647;SDS011;1840;48.892;15.312;2023-07-13T03:39:16;8.40;;;4.40;;
3647;SDS011;1840;48.892;15.312;2023-07-13T03:41:45;5.00;;;3.47;;
3647;SDS011;1840;48.892;15.312;2023-07-13T03:44:15;9.33;;;4.13;;
3647;SDS011;1840;48.892;15.312;2023-07-13T03:46:43;8.60;;;3.70;;
3647;SDS011;1840;48.892;15.312;2023-07-13T03:49:11;10.40;;;4.47;;
3647;SDS011;1840;48.892;15.312;2023-07-13T03:51:39;6.80;;;4.00;;
3647;SDS011;1840;48.892;15.312;2023-07-13T03:54:07;11.23;;;4.20;;
3647;SDS011;1840;48.892;15.312;2023-07-13T03:56:35;5.87;;;3.70;;
3647;SDS011;1840;48.892;15.312;2023-07-13T03:59:05;7.53;;;4.30;;
3647;SDS011;1840;48.892;15.312;2023-07-13T04:01:33;6.83;;;4.13;;
3647;SDS011;1840;48.892;15.312;2023-07-13T04:04:01;8.23;;;4.40;;
3647;SDS011;1840;48.892;15.312;2023-07-13T04:06:30;7.23;;;4.40;;
3647;SDS011;1840;48.892;15.312;2023-07-13T04:09:00;10.40;;;4.30;;
3647;SDS011;1840;48.892;15.312;2023-07-13T04:11:32;6.40;;;4.13;;
3647;SDS011;1840;48.892;15.312;2023-07-13T04:14:00;6.77;;;4.00;;
3647;SDS011;1840;48.892;15.312;2023-07-13T04:16:29;7.63;;;4.37;;
3647;SDS011;1840;48.892;15.312;2023-07-13T04:18:57;5.87;;;4.00;;
3647;SDS011;1840;48.892;15.312;2023-07-13T04:21:27;7.30;;;4.23;;
3647;SDS011;1840;48.892;15.312;2023-07-13T04:23:56;6.10;;;3.93;;
3647;SDS011;1840;48.892;15.312;2023-07-13T04:26:25;7.80;;;3.93;;
3647;SDS011;1840;48.892;15.312;2023-07-13T04:28:53;6.27;;;3.93;;
3647;SDS011;1840;48.892;15.312;2023-07-13T04:31:21;8.90;;;5.03;;
3647;SDS011;1840;48.892;15.312;2023-07-13T04:33:51;7.63;;;4.30;;
3647;SDS011;1840;48.892;15.312;2023-07-13T04:36:19;10.30;;;4.73;;
3647;SDS011;1840;48.892;15.312;2023-07-13T04:38:47;5.40;;;4.07;;
3647;SDS011;1840;48.892;15.312;2023-07-13T04:41:16;7.30;;;4.10;;
3647;SDS011;1840;48.892;15.312;2023-07-13T04:43:44;6.20;;;3.90;;
3647;SDS011;1840;48.892;15.312;2023-07-13T04:46:13;9.80;;;4.37;;
3647;SDS011;1840;48.892;15.312;2023-07-13T04:48:43;6.90;;;3.97;;
3647;SDS011;1840;48.892;15.312;2023-07-13T04:51:13;6.00;;;3.53;;
3647;SDS011;1840;48.892;15.312;2023-07-13T04:53:41;8.87;;;3.97;;
3647;SDS011;1840;48.892;15.312;2023-07-13T04:56:09;6.23;;;3.80;;
3647;SDS011;1840;48.892;15.312;2023-07-13T04:58:38;6.70;;;3.90;;
3647;SDS011;1840;48.892;15.312;2023-07-13T05:01:06;10.63;;;4.23;;
3647;SDS011;1840;48.892;15.312;2023-07-13T05:03:37;7.80;;;3.77;;
3647;SDS011;1840;48.892;15.312;2023-07-13T05:06:05;6.20;;;3.70;;
3647;SDS011;1840;48.892;15.312;2023-07-13T05:08:37;8.67;;;4.87;;
3647;SDS011;1840;48.892;15.312;2023-07-13T05:11:06;7.33;;;3.93;;
3647;SDS011;1840;48.892;15.312;2023-07-13T05:13:34;7.10;;;3.40;;
3647;SDS011;1840;48.892;15.312;2023-07-13T05:16:03;7.00;;;4.40;;
3647;SDS011;1840;48.892;15.312;2023-07-13T05:18:34;12.30;;;4.33;;
3647;SDS011;1840;48.892;15.312;2023-07-13T05:21:05;5.73;;;4.03;;
3647;SDS011;1840;48.892;15.312;2023-07-13T05:23:35;6.83;;;4.07;;
3647;SDS011;1840;48.892;15.312;2023-07-13T05:26:05;6.37;;;3.50;;
3647;SDS011;1840;48.892;15.312;2023-07-13T05:28:35;5.63;;;3.13;;
3647;SDS011;1840;48.892;15.312;2023-07-13T05:31:04;6.50;;;3.50;;
3647;SDS011;1840;48.892;15.312;2023-07-13T05:33:32;6.30;;;3.80;;
3647;SDS011;1840;48.892;15.312;2023-07-13T05:36:00;5.50;;;3.47;;
3647;SDS011;1840;48.892;15.312;2023-07-13T05:38:28;7.03;;;3.50;;
3647;SDS011;1840;48.892;15.312;2023-07-13T05:40:58;10.40;;;3.43;;
3647;SDS011;1840;48.892;15.312;2023-07-13T05:43:31;7.80;;;4.27;;
3647;SDS011;1840;48.892;15.312;2023-07-13T05:45:59;6.07;;;3.03;;
3647;SDS011;1840;48.892;15.312;2023-07-13T05:48:27;5.70;;;3.07;;
3647;SDS011;1840;48.892;15.312;2023-07-13T05:50:55;7.13;;;3.10;;
3647;SDS011;1840;48.892;15.312;2023-07-13T05:53:23;7.97;;;3.97;;
3647;SDS011;1840;48.892;15.312;2023-07-13T05:55:51;7.77;;;3.27;;
3647;SDS011;1840;48.892;15.312;2023-07-13T05:58:24;4.10;;;2.60;;
3647;SDS011;1840;48.892;15.312;2023-07-13T06:00:58;6.80;;;3.30;;
3647;SDS011;1840;48.892;15.312;2023-07-13T06:03:27;5.20;;;3.57;;
3647;SDS011;1840;48.892;15.312;2023-07-13T06:05:55;5.37;;;3.23;;
3647;SDS011;1840;48.892;15.312;2023-07-13T06:08:23;5.30;;;3.27;;
3647;SDS011;1840;48.892;15.312;2023-07-13T06:10:51;5.53;;;3.43;;
3647;SDS011;1840;48.892;15.312;2023-07-13T06:13:19;6.10;;;3.60;;
3647;SDS011;1840;48.892;15.312;2023-07-13T06:15:49;8.50;;;3.10;;
3647;SDS011;1840;48.892;15.312;2023-07-13T06:18:17;6.57;;;3.30;;
3647;SDS011;1840;48.892;15.312;2023-07-13T06:20:46;6.20;;;3.73;;
3647;SDS011;1840;48.892;15.312;2023-07-13T06:23:14;6.00;;;3.30;;
3647;SDS011;1840;48.892;15.312;2023-07-13T06:25:42;7.63;;;3.70;;
3647;SDS011;1840;48.892;15.312;2023-07-13T06:28:10;6.37;;;3.50;;
3647;SDS011;1840;48.892;15.312;2023-07-13T06:30:38;7.00;;;3.27;;
3647;SDS011;1840;48.892;15.312;2023-07-13T06:33:08;5.80;;;3.57;;
3647;SDS011;1840;48.892;15.312;2023-07-13T06:35:36;10.70;;;3.20;;
3647;SDS011;1840;48.892;15.312;2023-07-13T06:38:04;5.93;;;3.43;;
3647;SDS011;1840;48.892;15.312;2023-07-13T06:40:32;6.27;;;3.40;;
3647;SDS011;1840;48.892;15.312;2023-07-13T06:43:00;4.93;;;3.30;;
3647;SDS011;1840;48.892;15.312;2023-07-13T06:45:28;6.47;;;3.63;;
3647;SDS011;1840;48.892;15.312;2023-07-13T06:47:56;7.40;;;3.40;;
3647;SDS011;1840;48.892;15.312;2023-07-13T06:50:26;5.20;;;3.07;;
3647;SDS011;1840;48.892;15.312;2023-07-13T06:52:54;9.00;;;3.20;;
3647;SDS011;1840;48.892;15.312;2023-07-13T06:55:22;6.27;;;3.07;;
3647;SDS011;1840;48.892;15.312;2023-07-13T06:57:50;5.10;;;3.23;;
3647;SDS011;1840;48.892;15.312;2023-07-13T07:00:18;7.40;;;3.10;;
3647;SDS011;1840;48.892;15.312;2023-07-13T07:02:46;5.20;;;3.07;;
3647;SDS011;1840;48.892;15.312;2023-07-13T07:05:15;4.17;;;3.00;;
3647;SDS011;1840;48.892;15.312;2023-07-13T07:07:44;5.43;;;3.30;;
3647;SDS011;1840;48.892;15.312;2023-07-13T07:10:12;7.53;;;3.60;;
3647;SDS011;1840;48.892;15.312;2023-07-13T07:12:40;7.73;;;3.33;;
3647;SDS011;1840;48.892;15.312;2023-07-13T07:15:08;5.17;;;3.27;;
3647;SDS011;1840;48.892;15.312;2023-07-13T07:17:37;6.00;;;3.37;;
3647;SDS011;1840;48.892;15.312;2023-07-13T07:20:05;5.30;;;3.23;;
3647;SDS011;1840;48.892;15.312;2023-07-13T07:22:34;6.00;;;3.70;;
3647;SDS011;1840;48.892;15.312;2023-07-13T07:25:04;5.20;;;3.30;;
3647;SDS011;1840;48.892;15.312;2023-07-13T07:27:32;9.17;;;3.13;;
3647;SDS011;1840;48.892;15.312;2023-07-13T07:30:04;4.70;;;3.07;;
3647;SDS011;1840;48.892;15.312;2023-07-13T07:32:35;5.43;;;3.30;;
3647;SDS011;1840;48.892;15.312;2023-07-13T07:35:07;8.00;;;3.30;;
3647;SDS011;1840;48.892;15.312;2023-07-13T07:37:35;6.13;;;3.20;;
3647;SDS011;1840;48.892;15.312;2023-07-13T07:40:08;5.23;;;3.20;;
3647;SDS011;1840;48.892;15.312;2023-07-13T07:42:39;5.33;;;3.30;;
3647;SDS011;1840;48.892;15.312;2023-07-13T07:45:07;9.73;;;4.47;;
3647;SDS011;1840;48.892;15.312;2023-07-13T07:47:37;7.40;;;3.50;;
3647;SDS011;1840;48.892;15.312;2023-07-13T07:50:06;6.43;;;3.30;;
3647;SDS011;1840;48.892;15.312;2023-07-13T07:52:35;5.67;;;3.33;;
3647;SDS011;1840;48.892;15.312;2023-07-13T07:55:04;5.00;;;2.93;;
3647;SDS011;1840;48.892;15.312;2023-07-13T07:57:37;6.67;;;2.90;;
3647;SDS011;1840;48.892;15.312;2023-07-13T08:00:09;5.03;;;3.10;;
3647;SDS011;1840;48.892;15.312;2023-07-13T08:02:41;5.93;;;2.90;;
3647;SDS011;1840;48.892;15.312;2023-07-13T08:05:12;5.67;;;3.33;;
3647;SDS011;1840;48.892;15.312;2023-07-13T08:07:43;11.40;;;3.83;;
3647;SDS011;1840;48.892;15.312;2023-07-13T08:10:11;5.40;;;2.90;;
3647;SDS011;1840;48.892;15.312;2023-07-13T08:12:40;7.10;;;3.63;;
3647;SDS011;1840;48.892;15.312;2023-07-13T08:15:29;7.57;;;3.00;;
3647;SDS011;1840;48.892;15.312;2023-07-13T08:17:57;5.40;;;3.10;;
3647;SDS011;1840;48.892;15.312;2023-07-13T08:20:25;5.77;;;3.53;;
3647;SDS011;1840;48.892;15.312;2023-07-13T08:22:53;4.57;;;2.60;;
3647;SDS011;1840;48.892;15.312;2023-07-13T08:25:21;5.50;;;3.33;;
3647;SDS011;1840;48.892;15.312;2023-07-13T08:27:50;5.43;;;3.20;;
3647;SDS011;1840;48.892;15.312;2023-07-13T08:30:19;4.80;;;3.20;;
3647;SDS011;1840;48.892;15.312;2023-07-13T08:32:47;5.80;;;2.70;;
3647;SDS011;1840;48.892;15.312;2023-07-13T08:35:15;5.90;;;2.90;;
3647;SDS011;1840;48.892;15.312;2023-07-13T08:37:43;6.97;;;3.30;;
3647;SDS011;1840;48.892;15.312;2023-07-13T08:40:12;6.30;;;2.50;;
3647;SDS011;1840;48.892;15.312;2023-07-13T08:42:42;4.37;;;2.57;;
3647;SDS011;1840;48.892;15.312;2023-07-13T08:45:17;7.60;;;2.87;;
3647;SDS011;1840;48.892;15.312;2023-07-13T08:47:50;5.53;;;3.10;;
3647;SDS011;1840;48.892;15.312;2023-07-13T08:50:23;5.33;;;2.60;;
3647;SDS011;1840;48.892;15.312;2023-07-13T08:52:55;6.93;;;2.33;;
3647;SDS011;1840;48.892;15.312;2023-07-13T08:55:26;5.17;;;2.97;;
3647;SDS011;1840;48.892;15.312;2023-07-13T08:58:01;4.77;;;2.47;;
3647;SDS011;1840;48.892;15.312;2023-07-13T09:00:37;5.90;;;2.60;;
3647;SDS011;1840;48.892;15.312;2023-07-13T09:03:12;8.30;;;2.43;;
3647;SDS011;1840;48.892;15.312;2023-07-13T09:05:49;6.90;;;3.20;;
3647;SDS011;1840;48.892;15.312;2023-07-13T09:08:33;4.23;;;2.50;;
3647;SDS011;1840;48.892;15.312;2023-07-13T09:11:18;11.37;;;2.53;;
3647;SDS011;1840;48.892;15.312;2023-07-13T09:13:57;6.63;;;2.40;;
3647;SDS011;1840;48.892;15.312;2023-07-13T09:16:35;6.17;;;2.80;;
3647;SDS011;1840;48.892;15.312;2023-07-13T09:19:05;6.63;;;2.40;;
3647;SDS011;1840;48.892;15.312;2023-07-13T09:21:39;7.87;;;2.40;;
3647;SDS011;1840;48.892;15.312;2023-07-13T09:24:24;7.17;;;2.60;;
3647;SDS011;1840;48.892;15.312;2023-07-13T09:26:57;8.60;;;2.50;;
3647;SDS011;1840;48.892;15.312;2023-07-13T09:29:27;5.50;;;2.10;;
3647;SDS011;1840;48.892;15.312;2023-07-13T09:32:00;5.97;;;2.40;;
3647;SDS011;1840;48.892;15.312;2023-07-13T09:34:31;4.13;;;1.90;;
3647;SDS011;1840;48.892;15.312;2023-07-13T09:37:00;4.60;;;1.90;;
3647;SDS011;1840;48.892;15.312;2023-07-13T09:39:29;3.90;;;1.73;;
3647;SDS011;1840;48.892;15.312;2023-07-13T09:42:03;3.50;;;1.93;;
3647;SDS011;1840;48.892;15.312;2023-07-13T09:44:50;7.30;;;2.43;;
3647;SDS011;1840;48.892;15.312;2023-07-13T09:47:22;6.73;;;1.93;;
3647;SDS011;1840;48.892;15.312;2023-07-13T09:49:54;4.43;;;1.80;;
3647;SDS011;1840;48.892;15.312;2023-07-13T09:52:38;12.90;;;2.70;;
3647;SDS011;1840;48.892;15.312;2023-07-13T09:55:22;3.60;;;1.80;;
3647;SDS011;1840;48.892;15.312;2023-07-13T09:57:52;5.77;;;2.73;;
3647;SDS011;1840;48.892;15.312;2023-07-13T10:00:21;6.20;;;2.00;;
3647;SDS011;1840;48.892;15.312;2023-07-13T10:03:00;4.43;;;2.00;;
3647;SDS011;1840;48.892;15.312;2023-07-13T10:05:37;4.70;;;2.10;;
3647;SDS011;1840;48.892;15.312;2023-07-13T10:08:15;3.77;;;1.87;;
3647;SDS011;1840;48.892;15.312;2023-07-13T10:10:52;5.10;;;2.40;;
3647;SDS011;1840;48.892;15.312;2023-07-13T10:13:28;10.60;;;2.03;;
3647;SDS011;1840;48.892;15.312;2023-07-13T10:16:00;6.37;;;2.43;;
3647;SDS011;1840;48.892;15.312;2023-07-13T10:18:34;4.90;;;2.23;;
3647;SDS011;1840;48.892;15.312;2023-07-13T10:21:12;4.40;;;2.20;;
3647;SDS011;1840;48.892;15.312;2023-07-13T10:23:47;4.23;;;2.30;;
3647;SDS011;1840;48.892;15.312;2023-07-13T10:26:20;5.47;;;2.50;;
3647;SDS011;1840;48.892;15.312;2023-07-13T10:28:52;6.17;;;2.43;;
3647;SDS011;1840;48.892;15.312;2023-07-13T10:31:25;4.10;;;2.00;;
3647;SDS011;1840;48.892;15.312;2023-07-13T10:33:54;4.30;;;2.30;;
3647;SDS011;1840;48.892;15.312;2023-07-13T10:36:28;4.10;;;1.73;;
3647;SDS011;1840;48.892;15.312;2023-07-13T10:39:01;7.60;;;1.77;;
3647;SDS011;1840;48.892;15.312;2023-07-13T10:41:32;3.27;;;1.40;;
3647;SDS011;1840;48.892;15.312;2023-07-13T10:44:04;4.03;;;1.50;;
3647;SDS011;1840;48.892;15.312;2023-07-13T10:46:39;5.03;;;2.07;;
3647;SDS011;1840;48.892;15.312;2023-07-13T10:49:10;7.03;;;2.10;;
3647;SDS011;1840;48.892;15.312;2023-07-13T10:51:39;5.00;;;1.87;;
3647;SDS011;1840;48.892;15.312;2023-07-13T10:54:12;5.03;;;1.77;;
3647;SDS011;1840;48.892;15.312;2023-07-13T10:56:46;8.00;;;1.80;;
3647;SDS011;1840;48.892;15.312;2023-07-13T10:59:17;3.50;;;1.27;;
3647;SDS011;1840;48.892;15.312;2023-07-13T11:01:56;8.87;;;2.20;;
3647;SDS011;1840;48.892;15.312;2023-07-13T11:04:29;6.07;;;1.90;;
3647;SDS011;1840;48.892;15.312;2023-07-13T11:07:10;9.03;;;2.10;;
3647;SDS011;1840;48.892;15.312;2023-07-13T11:09:48;3.97;;;1.80;;
3647;SDS011;1840;48.892;15.312;2023-07-13T11:15:27;5.57;;;1.57;;
3647;SDS011;1840;48.892;15.312;2023-07-13T11:18:19;5.03;;;1.97;;
3647;SDS011;1840;48.892;15.312;2023-07-13T11:20:50;4.13;;;1.90;;
3647;SDS011;1840;48.892;15.312;2023-07-13T11:23:20;5.33;;;1.90;;
3647;SDS011;1840;48.892;15.312;2023-07-13T11:25:56;4.27;;;1.93;;
3647;SDS011;1840;48.892;15.312;2023-07-13T11:28:26;3.50;;;1.83;;
3647;SDS011;1840;48.892;15.312;2023-07-13T11:31:02;5.40;;;2.50;;
3647;SDS011;1840;48.892;15.312;2023-07-13T11:33:49;5.20;;;2.03;;
3647;SDS011;1840;48.892;15.312;2023-07-13T11:36:21;9.83;;;2.07;;
3647;SDS011;1840;48.892;15.312;2023-07-13T11:38:55;7.57;;;2.20;;
3647;SDS011;1840;48.892;15.312;2023-07-13T11:41:29;4.77;;;1.70;;
3647;SDS011;1840;48.892;15.312;2023-07-13T11:44:07;5.37;;;1.67;;
3647;SDS011;1840;48.892;15.312;2023-07-13T11:46:39;5.60;;;1.70;;
3647;SDS011;1840;48.892;15.312;2023-07-13T11:49:16;4.10;;;1.80;;
3647;SDS011;1840;48.892;15.312;2023-07-13T11:51:47;6.37;;;2.00;;
3647;SDS011;1840;48.892;15.312;2023-07-13T11:54:23;4.20;;;1.90;;
3647;SDS011;1840;48.892;15.312;2023-07-13T11:56:55;4.03;;;1.80;;
3647;SDS011;1840;48.892;15.312;2023-07-13T11:59:27;4.30;;;2.00;;
3647;SDS011;1840;48.892;15.312;2023-07-13T12:01:58;3.70;;;1.83;;
3647;SDS011;1840;48.892;15.312;2023-07-13T12:04:27;6.03;;;2.07;;
3647;SDS011;1840;48.892;15.312;2023-07-13T12:07:04;5.23;;;1.80;;
3647;SDS011;1840;48.892;15.312;2023-07-13T12:09:35;4.10;;;2.13;;
3647;SDS011;1840;48.892;15.312;2023-07-13T12:12:08;4.00;;;1.70;;
3647;SDS011;1840;48.892;15.312;2023-07-13T12:14:39;3.60;;;1.80;;
3647;SDS011;1840;48.892;15.312;2023-07-13T12:17:11;5.93;;;2.00;;
3647;SDS011;1840;48.892;15.312;2023-07-13T12:19:43;12.13;;;2.00;;
3647;SDS011;1840;48.892;15.312;2023-07-13T12:22:14;4.10;;;1.80;;
3647;SDS011;1840;48.892;15.312;2023-07-13T12:24:44;4.90;;;2.03;;
3647;SDS011;1840;48.892;15.312;2023-07-13T12:27:18;5.27;;;2.17;;
3647;SDS011;1840;48.892;15.312;2023-07-13T12:29:49;3.57;;;1.60;;
3647;SDS011;1840;48.892;15.312;2023-07-13T12:32:20;10.50;;;2.13;;
3647;SDS011;1840;48.892;15.312;2023-07-13T12:34:52;5.10;;;2.00;;
3647;SDS011;1840;48.892;15.312;2023-07-13T12:37:23;5.23;;;1.87;;
3647;SDS011;1840;48.892;15.312;2023-07-13T12:39:51;5.50;;;2.10;;
3647;SDS011;1840;48.892;15.312;2023-07-13T12:42:21;3.73;;;1.67;;
3647;SDS011;1840;48.892;15.312;2023-07-13T12:44:53;3.90;;;1.60;;
3647;SDS011;1840;48.892;15.312;2023-07-13T12:47:24;6.90;;;1.60;;
3647;SDS011;1840;48.892;15.312;2023-07-13T12:49:54;6.20;;;1.83;;
3647;SDS011;1840;48.892;15.312;2023-07-13T12:52:29;4.33;;;2.10;;
3647;SDS011;1840;48.892;15.312;2023-07-13T12:55:03;4.53;;;1.40;;
3647;SDS011;1840;48.892;15.312;2023-07-13T12:57:37;5.03;;;2.20;;
3647;SDS011;1840;48.892;15.312;2023-07-13T13:00:23;5.90;;;1.80;;
3647;SDS011;1840;48.892;15.312;2023-07-13T13:02:55;10.50;;;2.07;;
3647;SDS011;1840;48.892;15.312;2023-07-13T13:05:27;4.93;;;1.90;;
3647;SDS011;1840;48.892;15.312;2023-07-13T13:07:58;6.17;;;2.00;;
3647;SDS011;1840;48.892;15.312;2023-07-13T13:10:27;6.40;;;1.60;;
3647;SDS011;1840;48.892;15.312;2023-07-13T13:12:55;4.10;;;1.73;;
3647;SDS011;1840;48.892;15.312;2023-07-13T13:15:23;6.80;;;1.97;;
3647;SDS011;1840;48.892;15.312;2023-07-13T13:17:51;8.23;;;1.93;;
3647;SDS011;1840;48.892;15.312;2023-07-13T13:20:20;8.73;;;1.80;;
3647;SDS011;1840;48.892;15.312;2023-07-13T13:22:49;5.10;;;2.03;;
3647;SDS011;1840;48.892;15.312;2023-07-13T13:25:19;4.47;;;1.90;;
3647;SDS011;1840;48.892;15.312;2023-07-13T13:27:48;6.57;;;2.20;;
3647;SDS011;1840;48.892;15.312;2023-07-13T13:30:17;4.50;;;1.60;;
3647;SDS011;1840;48.892;15.312;2023-07-13T13:32:46;9.83;;;1.97;;
3647;SDS011;1840;48.892;15.312;2023-07-13T13:35:16;4.20;;;1.77;;
3647;SDS011;1840;48.892;15.312;2023-07-13T13:37:46;4.30;;;2.47;;
3647;SDS011;1840;48.892;15.312;2023-07-13T13:40:17;6.00;;;2.10;;
3647;SDS011;1840;48.892;15.312;2023-07-13T13:42:49;4.43;;;1.90;;
3647;SDS011;1840;48.892;15.312;2023-07-13T13:45:19;6.00;;;1.90;;
3647;SDS011;1840;48.892;15.312;2023-07-13T13:47:47;4.00;;;2.00;;
3647;SDS011;1840;48.892;15.312;2023-07-13T13:50:16;5.57;;;2.00;;
3647;SDS011;1840;48.892;15.312;2023-07-13T13:52:48;4.10;;;1.80;;
3647;SDS011;1840;48.892;15.312;2023-07-13T13:55:18;12.10;;;4.40;;
3647;SDS011;1840;48.892;15.312;2023-07-13T13:57:50;16.13;;;4.47;;
3647;SDS011;1840;48.892;15.312;2023-07-13T14:00:20;7.37;;;3.83;;
3647;SDS011;1840;48.892;15.312;2023-07-13T14:02:48;6.90;;;4.57;;
3647;SDS011;1840;48.892;15.312;2023-07-13T14:05:20;9.57;;;5.70;;
3647;SDS011;1840;48.892;15.312;2023-07-13T14:07:52;11.30;;;7.00;;
3647;SDS011;1840;48.892;15.312;2023-07-13T14:10:22;15.00;;;7.43;;
3647;SDS011;1840;48.892;15.312;2023-07-13T14:12:50;10.40;;;6.43;;
3647;SDS011;1840;48.892;15.312;2023-07-13T14:15:21;9.23;;;6.17;;
3647;SDS011;1840;48.892;15.312;2023-07-13T14:17:50;9.53;;;5.60;;
3647;SDS011;1840;48.892;15.312;2023-07-13T14:20:19;7.77;;;4.70;;
3647;SDS011;1840;48.892;15.312;2023-07-13T14:22:50;13.30;;;4.53;;
3647;SDS011;1840;48.892;15.312;2023-07-13T14:25:19;9.30;;;3.40;;
3647;SDS011;1840;48.892;15.312;2023-07-13T14:27:49;5.60;;;3.13;;
3647;SDS011;1840;48.892;15.312;2023-07-13T14:30:23;5.70;;;3.07;;
3647;SDS011;1840;48.892;15.312;2023-07-13T14:32:52;5.60;;;2.97;;
3647;SDS011;1840;48.892;15.312;2023-07-13T14:35:21;7.27;;;2.40;;
3647;SDS011;1840;48.892;15.312;2023-07-13T14:37:50;6.40;;;2.20;;
3647;SDS011;1840;48.892;15.312;2023-07-13T14:40:19;4.67;;;2.23;;
3647;SDS011;1840;48.892;15.312;2023-07-13T14:42:53;8.33;;;2.00;;
3647;SDS011;1840;48.892;15.312;2023-07-13T14:45:21;5.43;;;2.07;;
3647;SDS011;1840;48.892;15.312;2023-07-13T14:47:50;6.83;;;1.97;;
3647;SDS011;1840;48.892;15.312;2023-07-13T14:50:19;5.83;;;2.00;;
3647;SDS011;1840;48.892;15.312;2023-07-13T14:52:48;6.20;;;2.00;;
3647;SDS011;1840;48.892;15.312;2023-07-13T14:55:16;12.13;;;2.30;;
3647;SDS011;1840;48.892;15.312;2023-07-13T14:57:47;7.13;;;2.07;;
3647;SDS011;1840;48.892;15.312;2023-07-13T15:00:17;5.90;;;2.00;;
3647;SDS011;1840;48.892;15.312;2023-07-13T15:02:47;5.53;;;1.87;;
3647;SDS011;1840;48.892;15.312;2023-07-13T15:05:18;6.27;;;2.40;;
3647;SDS011;1840;48.892;15.312;2023-07-13T15:07:49;5.47;;;1.70;;
3647;SDS011;1840;48.892;15.312;2023-07-13T15:10:19;5.10;;;1.63;;
3647;SDS011;1840;48.892;15.312;2023-07-13T15:12:50;5.47;;;2.03;;
3647;SDS011;1840;48.892;15.312;2023-07-13T15:15:19;6.47;;;2.33;;
3647;SDS011;1840;48.892;15.312;2023-07-13T15:17:47;6.10;;;1.70;;
3647;SDS011;1840;48.892;15.312;2023-07-13T15:20:17;3.90;;;1.77;;
3647;SDS011;1840;48.892;15.312;2023-07-13T15:22:49;4.77;;;1.97;;
3647;SDS011;1840;48.892;15.312;2023-07-13T15:25:18;9.50;;;2.33;;